createdAt,value
2022-10-01T00:02:31.668Z,13.4
2022-10-01T00:12:34.061Z,13.4
2022-10-01T00:22:35.803Z,13.3
2022-10-01T00:32:38.406Z,13.2
2022-10-01T00:42:40.502Z,13.2
2022-10-01T01:02:44.268Z,12.8
2022-10-01T01:12:46.473Z,12.3
2022-10-01T01:22:48.754Z,11.9
2022-10-01T01:32:50.940Z,11.6
2022-10-01T01:35:29.305Z,11.6
2022-10-01T01:43:03.406Z,11.5
2022-10-01T01:53:05.763Z,11.3
2022-10-01T02:13:10.132Z,11
2022-10-01T02:23:11.840Z,10.9
2022-10-01T02:33:13.941Z,10.8
2022-10-01T02:43:16.138Z,10.8
2022-10-01T02:53:18.548Z,10.7
2022-10-01T03:03:21.015Z,10.7
2022-10-01T03:13:23.634Z,10.7
2022-10-01T03:23:26.186Z,10.6
2022-10-01T03:53:32.162Z,10.5
2022-10-01T04:03:34.648Z,10.6
2022-10-01T04:13:36.897Z,10.6
2022-10-01T04:23:39.277Z,10.7
2022-10-01T04:33:41.180Z,10.7
2022-10-01T04:43:43.725Z,10.6
2022-10-01T04:53:45.877Z,10.8
2022-10-01T05:03:47.581Z,11
2022-10-01T05:13:49.471Z,11.1
2022-10-01T05:23:51.787Z,11.1
2022-10-01T05:33:53.671Z,11.2
2022-10-01T05:43:55.623Z,11.1
2022-10-01T05:53:57.310Z,10.9
2022-10-01T06:03:59.549Z,10.9
2022-10-01T06:14:01.879Z,10.9
2022-10-01T06:24:03.657Z,11
2022-10-01T06:34:05.640Z,11.1
2022-10-01T06:44:08.219Z,11.1
2022-10-01T06:54:10.394Z,11.2
2022-10-01T07:04:12.409Z,11.3
2022-10-01T07:14:15.037Z,11.4
2022-10-01T07:24:17.046Z,11.4
2022-10-01T07:34:19.188Z,11.6
2022-10-01T07:44:20.967Z,11.6
2022-10-01T07:54:22.781Z,11.7
2022-10-01T08:04:25.023Z,11.8
2022-10-01T08:14:27.268Z,12.1
2022-10-01T08:24:30.095Z,12.4
2022-10-01T08:34:31.914Z,12.6
2022-10-01T08:44:34.334Z,12.9
2022-10-01T08:54:36.032Z,13.2
2022-10-01T09:04:38.299Z,13.3
2022-10-01T09:14:40.582Z,13.6
2022-10-01T09:24:42.942Z,13.9
2022-10-01T09:34:45.322Z,14.2
2022-10-01T09:44:47.296Z,14.5
2022-10-01T09:54:49.188Z,14.2
2022-10-01T10:04:51.500Z,14.2
2022-10-01T10:14:53.343Z,14.3
2022-10-01T10:24:55.975Z,14.2
2022-10-01T10:35:02.154Z,14.4
2022-10-01T10:45:00.870Z,14.6
2022-10-01T10:55:02.639Z,15.4
2022-10-01T11:05:04.889Z,16.1
2022-10-01T11:15:07.341Z,16.4
2022-10-01T11:25:09.858Z,15.8
2022-10-01T11:35:12.258Z,15.9
2022-10-01T11:45:14.172Z,15.6
2022-10-01T11:55:16.126Z,15.1
2022-10-01T12:05:18.007Z,14.1
2022-10-01T12:25:22.496Z,11.7
2022-10-01T12:35:24.376Z,12.1
2022-10-01T12:45:26.519Z,12.7
2022-10-01T12:55:28.371Z,13.2
2022-10-01T13:05:30.313Z,13.4
2022-10-01T13:15:32.498Z,13.9
2022-10-01T13:25:34.521Z,15
2022-10-01T13:35:36.780Z,16
2022-10-01T13:45:39.169Z,16
2022-10-01T13:55:41.158Z,16.6
2022-10-01T14:25:51.491Z,16.6
2022-10-01T14:35:50.298Z,16.1
2022-10-01T14:45:52.716Z,15.7
2022-10-01T14:55:55.301Z,15.6
2022-10-01T15:16:00.109Z,16.9
2022-10-01T15:26:01.733Z,16.7
2022-10-01T15:36:03.722Z,16.7
2022-10-01T15:46:05.779Z,16.2
2022-10-01T15:56:07.489Z,16.6
2022-10-01T16:06:10.160Z,16.3
2022-10-01T16:16:11.921Z,15.9
2022-10-01T16:26:14.055Z,15.5
2022-10-01T16:36:16.066Z,15.4
2022-10-01T16:46:18.013Z,15.2
2022-10-01T16:56:23.632Z,15
2022-10-01T17:06:22.635Z,14.8
2022-10-01T17:16:24.876Z,14.6
2022-10-01T17:26:27.260Z,14.4
2022-10-01T17:36:29.450Z,14.2
2022-10-01T17:46:31.370Z,14
2022-10-01T18:06:35.109Z,13.7
2022-10-01T18:16:37.408Z,13.7
2022-10-01T18:26:39.205Z,13.7
2022-10-01T18:36:41.477Z,13.6
2022-10-01T18:56:45.800Z,13.3
2022-10-01T19:06:48.059Z,13.2
2022-10-01T19:16:50.208Z,13.2
2022-10-01T19:26:52.198Z,13.4
2022-10-01T19:46:56.202Z,13.3
2022-10-01T19:56:58.549Z,13.3
2022-10-01T20:17:02.467Z,13.1
2022-10-01T20:27:04.118Z,12.9
2022-10-01T20:37:06.147Z,12.7
2022-10-01T20:47:08.230Z,12.5
2022-10-01T20:57:09.990Z,12.3
2022-10-01T21:17:14.203Z,12.1
2022-10-01T21:27:16.108Z,11.9
2022-10-01T21:37:18.154Z,11.9
2022-10-01T21:47:20.017Z,11.9
2022-10-01T21:57:21.947Z,11.9
2022-10-01T22:07:23.800Z,11.8
2022-10-01T22:17:26.073Z,11.6
2022-10-01T22:27:28.506Z,11.5
2022-10-01T22:37:31.095Z,11.4
2022-10-01T22:47:33.471Z,11.4
2022-10-01T22:57:35.463Z,11.5
2022-10-01T23:07:37.662Z,11.6
2022-10-01T23:17:39.379Z,11.8
2022-10-01T23:47:46.432Z,12.1
2022-10-01T23:57:49.000Z,12.1
